createdAt,value
2018-06-17T00:00:41.706Z,66.97
2018-06-17T00:01:41.709Z,66.65
2018-06-17T00:02:41.749Z,66.28
2018-06-17T00:03:41.760Z,66.69
2018-06-17T00:04:41.726Z,68.03
2018-06-17T00:05:41.772Z,68.53
2018-06-17T00:06:41.735Z,68.01
2018-06-17T00:07:41.839Z,68.78
2018-06-17T00:08:41.793Z,67.46
2018-06-17T00:09:41.726Z,68.21
2018-06-17T00:10:41.716Z,68.49
2018-06-17T00:11:41.709Z,68.63
2018-06-17T00:12:41.704Z,67.97
2018-06-17T00:13:41.699Z,68.99
2018-06-17T00:14:41.719Z,69
2018-06-17T00:15:41.704Z,69.23
2018-06-17T00:16:41.704Z,69.02
2018-06-17T00:17:41.722Z,68.68
2018-06-17T00:18:41.706Z,69.4
2018-06-17T00:19:41.711Z,69.19
2018-06-17T00:20:41.693Z,69.22
2018-06-17T00:21:41.706Z,69.57
2018-06-17T00:22:41.727Z,69.47
2018-06-17T00:23:41.710Z,70.24
2018-06-17T00:24:41.878Z,70.55
2018-06-17T00:25:41.736Z,70.82
2018-06-17T00:26:41.710Z,70.83
2018-06-17T00:27:41.757Z,70.12
2018-06-17T00:28:41.707Z,70.12
2018-06-17T00:29:41.708Z,69.56
2018-06-17T00:30:41.710Z,69.43
2018-06-17T00:31:41.745Z,69.75
2018-06-17T00:32:41.718Z,69.64
2018-06-17T00:33:41.734Z,70.19
2018-06-17T00:34:41.723Z,69.45
2018-06-17T00:35:41.766Z,69.02
2018-06-17T00:36:41.726Z,69.48
2018-06-17T00:37:41.752Z,69.27
2018-06-17T00:38:41.727Z,69.56
2018-06-17T00:39:42.076Z,70.1
2018-06-17T00:40:41.745Z,69.63
2018-06-17T00:41:41.733Z,70.55
2018-06-17T00:42:41.756Z,68.88
2018-06-17T00:43:41.748Z,70.09
2018-06-17T00:44:41.758Z,69.5
2018-06-17T00:45:41.736Z,69.96
2018-06-17T00:46:41.738Z,70.23
2018-06-17T00:47:41.756Z,70.18
2018-06-17T00:48:41.756Z,69.35
2018-06-17T00:49:41.733Z,68.53
2018-06-17T00:50:41.948Z,69.25
2018-06-17T00:51:41.767Z,70.04
2018-06-17T00:52:41.761Z,69.5
2018-06-17T00:53:42.273Z,68.92
2018-06-17T00:54:41.754Z,68.57
2018-06-17T00:55:41.776Z,67.79
2018-06-17T00:56:41.857Z,68.5
2018-06-17T00:57:41.784Z,68.41
2018-06-17T00:58:41.809Z,69.03
2018-06-17T00:59:41.815Z,69.05
2018-06-17T01:00:41.999Z,69.13
2018-06-17T01:01:41.793Z,69.62
2018-06-17T01:02:42.297Z,68.94
2018-06-17T01:03:42.251Z,70.05
2018-06-17T01:04:42.506Z,69.85
2018-06-17T01:05:42.714Z,69.45
2018-06-17T01:06:42.518Z,68.53
2018-06-17T01:07:42.502Z,69.11
2018-06-17T01:08:42.534Z,69.56
2018-06-17T01:09:42.512Z,68.82
2018-06-17T01:10:42.539Z,69.25
2018-06-17T01:11:42.505Z,69.59
2018-06-17T01:12:42.535Z,68.33
2018-06-17T01:13:42.778Z,69.24
2018-06-17T01:14:42.565Z,70.05
2018-06-17T01:15:42.513Z,70.25
2018-06-17T01:16:42.538Z,69.4
2018-06-17T01:17:42.537Z,70.47
2018-06-17T01:18:42.497Z,70.52
2018-06-17T01:19:42.583Z,69.46
2018-06-17T01:20:42.519Z,69.43
2018-06-17T01:21:42.458Z,68.4
2018-06-17T01:22:42.551Z,69.7
2018-06-17T01:23:42.559Z,69.08
2018-06-17T01:24:42.558Z,69.47
2018-06-17T01:25:42.512Z,68.62
2018-06-17T01:26:42.545Z,69.23
2018-06-17T01:27:42.562Z,68.2
2018-06-17T01:28:42.576Z,69.19
2018-06-17T01:29:42.570Z,69.54
2018-06-17T01:30:42.513Z,69.62
2018-06-17T01:31:42.577Z,70.18
2018-06-17T01:32:42.560Z,70.69
2018-06-17T01:33:42.498Z,70.45
2018-06-17T01:34:42.674Z,69.16
2018-06-17T01:35:42.571Z,68.88
2018-06-17T01:36:42.671Z,68.97
2018-06-17T01:37:42.569Z,68.53
2018-06-17T01:38:42.584Z,69.94
2018-06-17T01:39:42.538Z,69.48
2018-06-17T01:40:42.625Z,70.19
2018-06-17T01:41:42.664Z,70.77
2018-06-17T01:42:43.279Z,70.75
2018-06-17T01:43:42.567Z,71.04
2018-06-17T01:44:42.620Z,71.05
2018-06-17T01:45:42.629Z,70.42
2018-06-17T01:46:42.590Z,71.45
2018-06-17T01:47:42.800Z,70.96
2018-06-17T01:48:42.652Z,71.56
2018-06-17T01:49:42.563Z,71.02
2018-06-17T01:50:42.980Z,71.15
2018-06-17T01:51:42.561Z,71.05
2018-06-17T01:52:42.527Z,71.91
2018-06-17T01:53:42.592Z,72.29
2018-06-17T01:54:42.530Z,72.44
2018-06-17T01:55:42.581Z,72.3
2018-06-17T01:56:42.723Z,72.3
2018-06-17T01:57:42.534Z,72.38
2018-06-17T01:58:42.597Z,71.92
2018-06-17T01:59:42.529Z,72.33
2018-06-17T02:00:42.661Z,72.05
2018-06-17T02:01:42.659Z,72.19
2018-06-17T02:02:42.593Z,71.98
2018-06-17T02:03:42.825Z,72.32
2018-06-17T02:04:41.830Z,72.54
2018-06-17T02:05:41.837Z,72.21
2018-06-17T02:06:41.861Z,72.57
2018-06-17T02:07:41.929Z,72.08
2018-06-17T02:08:41.875Z,72.32
2018-06-17T02:09:41.967Z,71.84
2018-06-17T02:10:41.848Z,72.29
2018-06-17T02:11:41.839Z,72.54
2018-06-17T02:12:41.844Z,73.07
2018-06-17T02:13:41.852Z,72.4
2018-06-17T02:14:41.822Z,72.5
2018-06-17T02:15:41.855Z,71.77
2018-06-17T02:16:41.994Z,72.36
2018-06-17T02:17:41.975Z,72.67
2018-06-17T02:18:41.845Z,72.76
2018-06-17T02:19:41.994Z,72.32
2018-06-17T02:20:41.926Z,72.7
2018-06-17T02:21:41.855Z,72.72
2018-06-17T02:22:41.888Z,72.93
2018-06-17T02:23:41.964Z,72.83
2018-06-17T02:24:41.862Z,72.8
2018-06-17T02:25:42.043Z,72.91
2018-06-17T02:26:41.843Z,73.19
2018-06-17T02:27:41.856Z,72.59
2018-06-17T02:28:41.855Z,72.59
2018-06-17T02:29:41.929Z,72.82
2018-06-17T02:30:41.912Z,72.78
2018-06-17T02:31:41.876Z,72.36
2018-06-17T02:32:41.878Z,73.33
2018-06-17T02:33:41.855Z,73.2
2018-06-17T02:34:41.862Z,73.49
2018-06-17T02:35:41.869Z,73.22
2018-06-17T02:36:41.871Z,72.84
2018-06-17T02:37:41.884Z,73.28
2018-06-17T02:38:41.904Z,73.38
2018-06-17T02:39:42.029Z,73.15
2018-06-17T02:40:41.891Z,73.42
2018-06-17T02:41:41.882Z,72.91
2018-06-17T02:42:41.885Z,72.49
2018-06-17T02:43:41.893Z,72.63
2018-06-17T02:44:42.060Z,72.35
2018-06-17T02:45:41.996Z,72.35
2018-06-17T02:46:42.038Z,72.25
2018-06-17T02:47:41.987Z,71.82
2018-06-17T02:48:41.965Z,71.44
2018-06-17T02:49:41.894Z,71.66
2018-06-17T02:50:41.881Z,72.24
2018-06-17T02:51:41.968Z,72.82
2018-06-17T02:52:42.002Z,72.86
2018-06-17T02:53:42.023Z,72.93
2018-06-17T02:54:41.950Z,73.3
2018-06-17T02:55:42.006Z,73.17
2018-06-17T02:56:41.899Z,73.44
2018-06-17T02:57:41.924Z,74.29
2018-06-17T02:58:41.932Z,73.27
2018-06-17T02:59:41.956Z,73.99
2018-06-17T03:00:41.927Z,75.29
2018-06-17T03:01:41.993Z,76.18
2018-06-17T03:02:41.947Z,75.68
2018-06-17T03:03:42.043Z,76.64
2018-06-17T03:04:42.017Z,75.99
2018-06-17T03:05:41.921Z,76.57
2018-06-17T03:06:42.003Z,76.9
2018-06-17T03:07:41.984Z,76.56
2018-06-17T03:08:42.013Z,76.16
2018-06-17T03:09:41.901Z,77.13
2018-06-17T03:10:41.934Z,77.14
2018-06-17T03:11:41.988Z,77.39
2018-06-17T03:12:41.943Z,77.18
2018-06-17T03:13:41.983Z,77.59
2018-06-17T03:14:42.028Z,77.72
2018-06-17T03:15:42.088Z,76.96
2018-06-17T03:16:42.080Z,76.78
2018-06-17T03:17:42.085Z,77.3
2018-06-17T03:18:42.017Z,77.31
2018-06-17T03:19:41.920Z,77.24
2018-06-17T03:20:41.934Z,77.63
2018-06-17T03:21:41.982Z,77.67
2018-06-17T03:22:41.946Z,77.28
2018-06-17T03:23:41.948Z,77.19
2018-06-17T03:24:42.134Z,77.44
2018-06-17T03:25:41.955Z,77.81
2018-06-17T03:26:42.035Z,77.47
2018-06-17T03:27:42.016Z,77.41
2018-06-17T03:28:41.947Z,78.24
2018-06-17T03:29:42.067Z,77.91
2018-06-17T03:30:42.148Z,77.7
2018-06-17T03:31:41.968Z,78.48
2018-06-17T03:32:41.961Z,79.17
2018-06-17T03:33:42.024Z,78.72
2018-06-17T03:34:41.944Z,79.06
2018-06-17T03:35:41.987Z,79.66
2018-06-17T03:36:41.941Z,78.23
2018-06-17T03:37:41.924Z,78.41
2018-06-17T03:38:41.945Z,77.53
2018-06-17T03:39:41.934Z,78.81
2018-06-17T03:40:41.953Z,78.66
2018-06-17T03:41:41.949Z,78.53
2018-06-17T03:42:41.950Z,78.94
2018-06-17T03:43:41.931Z,78.98
2018-06-17T03:44:41.945Z,79.06
2018-06-17T03:45:41.944Z,79.41
2018-06-17T03:46:42.002Z,79.24
2018-06-17T03:47:41.944Z,79.95
2018-06-17T03:48:41.956Z,79.73
2018-06-17T03:49:41.955Z,79.84
2018-06-17T03:50:41.942Z,80.44
2018-06-17T03:51:41.951Z,80.4
2018-06-17T03:52:41.949Z,80.83
2018-06-17T03:53:41.971Z,80.19
2018-06-17T03:54:41.944Z,79.66
2018-06-17T03:55:42.116Z,79.42
2018-06-17T03:56:41.991Z,78.93
2018-06-17T03:57:41.964Z,78.77
2018-06-17T03:58:42.018Z,78.86
2018-06-17T03:59:42.136Z,78.94
2018-06-17T04:00:42.004Z,78.86
2018-06-17T04:01:41.982Z,78.67
2018-06-17T04:02:42.189Z,77.95
2018-06-17T04:03:42.025Z,78.16
2018-06-17T04:04:42.133Z,78.42
2018-06-17T04:05:42.085Z,78.07
2018-06-17T04:06:42.033Z,78.01
2018-06-17T04:07:42.042Z,77.76
2018-06-17T04:08:41.973Z,78.28
2018-06-17T04:09:41.998Z,77.95
2018-06-17T04:10:42.075Z,78.35
2018-06-17T04:11:42.213Z,76.56
2018-06-17T04:12:42.558Z,76.73
2018-06-17T04:13:41.998Z,77.02
2018-06-17T04:14:42.184Z,76.58
2018-06-17T04:15:42.063Z,76.77
2018-06-17T04:16:42.028Z,76.02
2018-06-17T04:17:41.975Z,76.3
2018-06-17T04:18:41.991Z,75.9
2018-06-17T04:19:41.990Z,75.26
2018-06-17T04:20:41.980Z,75.5
2018-06-17T04:21:42.015Z,75.17
2018-06-17T04:22:42.014Z,76.34
2018-06-17T04:23:41.983Z,77.35
2018-06-17T04:24:42.017Z,77.49
2018-06-17T04:25:42.601Z,77.39
2018-06-17T04:26:42.025Z,77.13
2018-06-17T04:27:42.073Z,77.01
2018-06-17T04:28:41.990Z,77.49
2018-06-17T04:29:41.999Z,77.3
2018-06-17T04:30:42.000Z,77.22
2018-06-17T04:31:42.008Z,77.48
2018-06-17T04:32:42.164Z,77.46
2018-06-17T04:33:42.048Z,77.47
2018-06-17T04:34:42.001Z,77.37
2018-06-17T04:35:42.029Z,76.53
2018-06-17T04:36:41.996Z,76.63
2018-06-17T04:37:42.027Z,76.73
2018-06-17T04:38:42.238Z,76.62
2018-06-17T04:39:42.013Z,76.26
2018-06-17T04:40:41.996Z,76.06
2018-06-17T04:41:42.003Z,76.51
2018-06-17T04:42:42.188Z,76.54
2018-06-17T04:43:42.053Z,76.33
2018-06-17T04:44:42.067Z,75.91
2018-06-17T04:45:42.108Z,75.77
2018-06-17T04:46:42.305Z,75.3
2018-06-17T04:47:42.043Z,75.44
2018-06-17T04:48:42.039Z,75.34
2018-06-17T04:49:42.009Z,75.79
2018-06-17T04:50:42.035Z,75.35
2018-06-17T04:51:42.041Z,75.69
2018-06-17T04:52:42.029Z,75.72
2018-06-17T04:53:42.030Z,75.8
2018-06-17T04:54:42.018Z,76.02
2018-06-17T04:55:42.005Z,75.87
2018-06-17T04:56:42.031Z,75.67
2018-06-17T04:57:42.044Z,75.37
2018-06-17T04:58:42.050Z,74.96
2018-06-17T04:59:42.050Z,75.1
2018-06-17T05:00:42.009Z,74.66
2018-06-17T05:01:42.034Z,74.54
2018-06-17T05:02:42.021Z,74.06
2018-06-17T05:03:42.040Z,74.62
2018-06-17T05:04:42.039Z,73.71
2018-06-17T05:05:42.063Z,73.61
2018-06-17T05:06:42.042Z,73.45
2018-06-17T05:07:42.057Z,73.43
2018-06-17T05:08:42.062Z,73.04
2018-06-17T05:09:42.109Z,72.88
2018-06-17T05:10:42.069Z,73.1
2018-06-17T05:11:42.187Z,72.84
2018-06-17T05:12:42.279Z,72.76
2018-06-17T05:13:42.108Z,72.69
2018-06-17T05:14:42.133Z,72.42
2018-06-17T05:15:42.179Z,71.89
2018-06-17T05:16:42.137Z,72.41
2018-06-17T05:17:42.152Z,72.63
2018-06-17T05:18:42.173Z,72.97
2018-06-17T05:19:42.096Z,72.45
2018-06-17T05:20:42.037Z,72.53
2018-06-17T05:21:42.075Z,72.24
2018-06-17T05:22:42.097Z,72.12
2018-06-17T05:23:42.113Z,71.6
2018-06-17T05:24:42.068Z,72.31
2018-06-17T05:25:42.087Z,72.25
2018-06-17T05:26:42.119Z,71.9
2018-06-17T05:27:42.109Z,71.79
2018-06-17T05:28:42.198Z,72.22
2018-06-17T05:29:42.149Z,71.4
2018-06-17T05:30:42.105Z,71.66
2018-06-17T05:31:42.073Z,71.51
2018-06-17T05:32:42.079Z,70.76
2018-06-17T05:33:42.255Z,71.99
2018-06-17T05:34:42.094Z,71.65
2018-06-17T05:35:42.103Z,70.45
2018-06-17T05:36:42.093Z,71.12
2018-06-17T05:37:42.082Z,69.99
2018-06-17T05:38:42.077Z,69.56
2018-06-17T05:39:42.191Z,69.97
2018-06-17T05:40:42.104Z,69.63
2018-06-17T05:41:42.073Z,69.23
2018-06-17T05:42:42.094Z,69.36
2018-06-17T05:43:42.119Z,70.08
2018-06-17T05:44:42.259Z,69.82
2018-06-17T05:45:42.097Z,68.73
2018-06-17T05:46:42.176Z,68.64
2018-06-17T05:47:42.139Z,68.81
2018-06-17T05:48:42.100Z,68.8
2018-06-17T05:49:42.108Z,68.81
2018-06-17T05:50:42.114Z,68.53
2018-06-17T05:51:42.214Z,68.86
2018-06-17T05:52:42.148Z,68.37
2018-06-17T05:53:42.088Z,67.62
2018-06-17T05:54:42.161Z,68.5
2018-06-17T05:55:42.476Z,67.57
2018-06-17T05:56:42.085Z,68.28
2018-06-17T05:57:42.159Z,68.31
2018-06-17T05:58:42.100Z,68.22
2018-06-17T05:59:42.093Z,68.37
2018-06-17T06:00:42.334Z,68
2018-06-17T06:01:42.119Z,67.7
2018-06-17T06:02:42.185Z,68.01
2018-06-17T06:03:42.165Z,67.43
2018-06-17T06:04:42.109Z,67.54
2018-06-17T06:05:42.119Z,67.93
2018-06-17T06:06:42.119Z,67.84
2018-06-17T06:07:42.186Z,67.28
2018-06-17T06:08:42.098Z,66.93
2018-06-17T06:09:42.170Z,67.27
2018-06-17T06:10:42.171Z,67.49
2018-06-17T06:11:42.105Z,66.75
2018-06-17T06:12:42.125Z,67.38
2018-06-17T06:13:42.547Z,67.11
2018-06-17T06:14:42.109Z,66.66
2018-06-17T06:15:42.125Z,66.12
2018-06-17T06:16:42.392Z,66
2018-06-17T06:17:42.405Z,66.33
2018-06-17T06:18:42.119Z,66.24
2018-06-17T06:19:42.214Z,66.43
2018-06-17T06:20:42.149Z,66.08
2018-06-17T06:21:42.507Z,65.57
2018-06-17T06:22:43.817Z,65.39
2018-06-17T06:23:43.513Z,65.74
2018-06-17T06:24:42.576Z,64.85
2018-06-17T06:25:42.232Z,65.13
2018-06-17T06:26:42.139Z,65.33
2018-06-17T06:27:42.140Z,65.79
2018-06-17T06:28:42.293Z,65.66
2018-06-17T06:29:42.151Z,65.53
2018-06-17T06:30:42.156Z,64.66
2018-06-17T06:31:42.161Z,64.3
2018-06-17T06:32:42.151Z,64.41
2018-06-17T06:33:42.206Z,64.56
2018-06-17T06:34:42.311Z,64.74
2018-06-17T06:35:42.174Z,64.64
2018-06-17T06:36:42.158Z,63.87
2018-06-17T06:37:42.158Z,63.23
2018-06-17T06:38:42.164Z,63.2
2018-06-17T06:39:42.140Z,64.02
2018-06-17T06:40:42.200Z,63.46
2018-06-17T06:41:42.218Z,63.03
2018-06-17T06:42:42.208Z,63.25
2018-06-17T06:43:42.170Z,62.83
2018-06-17T06:44:42.167Z,62.44
2018-06-17T06:45:42.385Z,62.39
2018-06-17T06:46:42.159Z,62.81
2018-06-17T06:47:42.187Z,63.57
2018-06-17T06:48:42.166Z,62.66
2018-06-17T06:49:42.163Z,63.45
2018-06-17T06:50:42.170Z,62.9
2018-06-17T06:51:42.175Z,62.53
2018-06-17T06:52:42.175Z,61.88
2018-06-17T06:53:42.305Z,61.71
2018-06-17T06:54:42.171Z,62.72
2018-06-17T06:55:42.237Z,62.2
2018-06-17T06:56:42.218Z,62.23
2018-06-17T06:57:42.194Z,62.1
2018-06-17T06:58:42.276Z,61.73
2018-06-17T06:59:42.197Z,61.94
2018-06-17T07:00:42.185Z,62.43
2018-06-17T07:01:42.223Z,61.84
2018-06-17T07:02:42.225Z,61.51
2018-06-17T07:03:42.239Z,62.02
2018-06-17T07:04:42.218Z,61.88
2018-06-17T07:05:42.436Z,61.8
2018-06-17T07:06:42.178Z,61.84
2018-06-17T07:07:42.529Z,62.15
2018-06-17T07:08:42.216Z,63
2018-06-17T07:09:42.304Z,61.55
2018-06-17T07:10:42.216Z,62.39
2018-06-17T07:11:42.191Z,62.13
2018-06-17T07:12:42.315Z,61.51
2018-06-17T07:13:42.193Z,61.8
2018-06-17T07:14:42.318Z,61.5
2018-06-17T07:15:42.813Z,61.91
2018-06-17T07:16:42.422Z,61.37
2018-06-17T07:17:42.205Z,60.62
2018-06-17T07:18:42.226Z,59.22
2018-06-17T07:19:42.236Z,58.39
2018-06-17T07:20:42.264Z,58.73
2018-06-17T07:21:42.229Z,58.28
2018-06-17T07:22:42.217Z,58.7
2018-06-17T07:23:42.233Z,59.19
2018-06-17T07:24:42.204Z,58.97
2018-06-17T07:25:42.208Z,58.97
2018-06-17T07:26:42.199Z,58.2
2018-06-17T07:27:42.211Z,59.12
2018-06-17T07:28:42.206Z,58.59
2018-06-17T07:29:42.402Z,58.61
2018-06-17T07:30:42.194Z,58.14
2018-06-17T07:31:42.385Z,58.36
2018-06-17T07:32:42.560Z,58.43
2018-06-17T07:33:42.248Z,58.1
2018-06-17T07:34:42.218Z,58.39
2018-06-17T07:35:42.298Z,58.35
2018-06-17T07:36:42.230Z,57.88
2018-06-17T07:37:42.266Z,58.89
2018-06-17T07:38:42.355Z,59.09
2018-06-17T07:39:42.429Z,58.4
2018-06-17T07:40:42.322Z,58.75
2018-06-17T07:41:42.234Z,59.44
2018-06-17T07:42:42.211Z,59.22
2018-06-17T07:43:42.490Z,59.29
2018-06-17T07:44:42.263Z,58.31
2018-06-17T07:45:42.230Z,58.34
2018-06-17T07:46:42.210Z,56.42
2018-06-17T07:47:42.340Z,55.51
2018-06-17T07:48:42.264Z,55.2
2018-06-17T07:49:42.290Z,54.4
2018-06-17T07:50:42.256Z,55.04
2018-06-17T07:51:42.318Z,54.38
2018-06-17T07:52:42.263Z,54.24
2018-06-17T07:53:42.274Z,54.06
2018-06-17T07:54:42.309Z,53.81
2018-06-17T07:55:42.368Z,54.05
2018-06-17T07:56:42.406Z,54.22
2018-06-17T07:57:42.384Z,54.35
2018-06-17T07:58:42.351Z,54.65
2018-06-17T07:59:42.408Z,54.67
2018-06-17T08:00:42.249Z,54.6
2018-06-17T08:01:42.312Z,51.6
2018-06-17T08:02:42.321Z,51.84
2018-06-17T08:03:42.256Z,53.16
2018-06-17T08:04:42.422Z,52.96
2018-06-17T08:05:42.445Z,53.22
2018-06-17T08:06:42.374Z,52.91
2018-06-17T08:07:42.557Z,52.89
2018-06-17T08:08:42.264Z,53.24
2018-06-17T08:09:42.252Z,52.73
2018-06-17T08:10:42.426Z,53.92
2018-06-17T08:11:42.275Z,50.07
2018-06-17T08:12:42.253Z,51.01
2018-06-17T08:13:42.244Z,49.34
2018-06-17T08:14:42.463Z,50.21
2018-06-17T08:15:42.384Z,51.23
2018-06-17T08:16:42.283Z,52.03
2018-06-17T08:17:42.274Z,51.84
2018-06-17T08:18:42.401Z,52.47
2018-06-17T08:19:42.260Z,51.88
2018-06-17T08:20:42.445Z,52.1
2018-06-17T08:21:42.311Z,49.12
2018-06-17T08:22:42.295Z,49.73
2018-06-17T08:23:42.285Z,49.53
2018-06-17T08:24:42.289Z,48.9
2018-06-17T08:25:42.298Z,48.57
2018-06-17T08:26:49.479Z,48.34
2018-06-17T08:27:42.290Z,46.27
2018-06-17T08:28:42.302Z,46.93
2018-06-17T08:29:42.936Z,46.62
2018-06-17T08:30:50.339Z,47.48
2018-06-17T08:31:47.733Z,48.43
2018-06-17T08:32:54.523Z,48.77
2018-06-17T08:33:44.308Z,49.45
2018-06-17T08:34:46.499Z,49.11
2018-06-17T08:35:46.222Z,50.23
2018-06-17T08:36:42.313Z,50.03
2018-06-17T08:37:42.329Z,50.29
2018-06-17T08:38:42.307Z,50.96
2018-06-17T08:39:42.308Z,51.04
2018-06-17T08:40:42.516Z,51.2
2018-06-17T08:41:42.309Z,51.44
2018-06-17T08:42:42.287Z,52
2018-06-17T08:43:42.304Z,51.72
2018-06-17T08:44:42.292Z,51.1
2018-06-17T08:45:42.317Z,51.14
2018-06-17T08:46:42.499Z,51.09
2018-06-17T08:47:42.297Z,51.12
2018-06-17T08:48:42.328Z,50.39
2018-06-17T08:49:42.317Z,51.6
2018-06-17T08:50:42.351Z,50.94
2018-06-17T08:51:42.296Z,51.47
2018-06-17T08:52:42.468Z,51.97
2018-06-17T08:53:42.347Z,51.6
2018-06-17T08:54:42.337Z,51.8
2018-06-17T08:55:42.471Z,52.36
2018-06-17T08:56:42.329Z,52.25
2018-06-17T08:57:42.311Z,52.09
2018-06-17T08:58:42.593Z,52.04
2018-06-17T08:59:42.504Z,51.43
2018-06-17T09:00:42.330Z,51.12
2018-06-17T09:01:42.359Z,51.06
2018-06-17T09:02:42.436Z,51.42
2018-06-17T09:03:42.356Z,50.95
2018-06-17T09:04:42.537Z,51.9
2018-06-17T09:05:42.373Z,52.16
2018-06-17T09:06:42.429Z,50.95
2018-06-17T09:07:42.563Z,52.16
2018-06-17T09:08:42.454Z,52.34
2018-06-17T09:09:42.561Z,51.76
2018-06-17T09:10:42.715Z,51.04
2018-06-17T09:11:42.478Z,51.29
2018-06-17T09:12:42.469Z,50.91
2018-06-17T09:13:42.383Z,51.12
2018-06-17T09:14:42.495Z,51.24
2018-06-17T09:15:42.712Z,52.1
2018-06-17T09:16:42.563Z,52.19
2018-06-17T09:17:42.540Z,52.46
2018-06-17T09:18:42.521Z,51.39
2018-06-17T09:19:42.424Z,51.47
2018-06-17T09:20:42.432Z,51.34
2018-06-17T09:21:42.541Z,51.73
2018-06-17T09:22:42.346Z,51.56
2018-06-17T09:23:42.648Z,51.68
2018-06-17T09:24:42.329Z,52.01
2018-06-17T09:25:42.334Z,52.15
2018-06-17T09:26:42.329Z,51.77
2018-06-17T09:27:42.352Z,51.7
2018-06-17T09:28:42.327Z,50.1
2018-06-17T09:29:42.391Z,50.23
2018-06-17T09:30:42.353Z,50.54
2018-06-17T09:31:42.548Z,51.48
2018-06-17T09:32:42.504Z,50.52
2018-06-17T09:33:42.361Z,50.43
2018-06-17T09:34:42.630Z,50.61
2018-06-17T09:35:42.523Z,50.56
2018-06-17T09:36:42.399Z,50.58
2018-06-17T09:37:42.434Z,50.98
2018-06-17T09:38:42.357Z,50.85
2018-06-17T09:39:42.566Z,51.56
2018-06-17T09:40:42.473Z,51.66
2018-06-17T09:41:42.469Z,52.24
2018-06-17T09:42:42.347Z,51.97
2018-06-17T09:43:42.364Z,52.45
2018-06-17T09:44:42.368Z,52.7
2018-06-17T09:45:42.397Z,52.76
2018-06-17T09:46:42.397Z,52.51
2018-06-17T09:47:42.413Z,52.79
2018-06-17T09:48:42.376Z,51.87
2018-06-17T09:49:42.600Z,51.76
2018-06-17T09:50:42.371Z,52.21
2018-06-17T09:51:42.428Z,52.57
2018-06-17T09:52:42.366Z,52.9
2018-06-17T09:53:42.401Z,52.94
2018-06-17T09:54:42.582Z,51.19
2018-06-17T09:55:42.575Z,52.48
2018-06-17T09:56:42.398Z,52.56
2018-06-17T09:57:42.507Z,53.04
2018-06-17T09:58:42.452Z,51.8
2018-06-17T09:59:42.454Z,51.45
2018-06-17T10:00:42.402Z,50.93
2018-06-17T10:01:42.615Z,51.89
2018-06-17T10:02:42.445Z,50.51
2018-06-17T10:03:42.516Z,51.08
2018-06-17T10:04:42.529Z,50.77
2018-06-17T10:05:42.440Z,50.4
2018-06-17T10:06:42.413Z,50.68
2018-06-17T10:07:42.409Z,50.77
2018-06-17T10:08:42.418Z,50.12
2018-06-17T10:09:42.566Z,50.37
2018-06-17T10:10:42.397Z,50.78
2018-06-17T10:11:42.419Z,50.92
2018-06-17T10:12:42.395Z,50.95
2018-06-17T10:13:42.456Z,51.64
2018-06-17T10:14:42.620Z,52.06
2018-06-17T10:15:42.404Z,51.35
2018-06-17T10:16:42.578Z,50.82
2018-06-17T10:17:42.421Z,51.93
2018-06-17T10:18:42.411Z,52
2018-06-17T10:19:42.538Z,52.36
2018-06-17T10:20:42.456Z,52.69
2018-06-17T10:21:42.441Z,53.29
2018-06-17T10:22:42.413Z,52.6
2018-06-17T10:23:42.426Z,53.39
2018-06-17T10:24:42.408Z,53.1
2018-06-17T10:25:42.561Z,52.98
2018-06-17T10:26:42.414Z,52.99
2018-06-17T10:27:42.466Z,51.7
2018-06-17T10:28:42.448Z,50.84
2018-06-17T10:29:42.459Z,49.61
2018-06-17T10:30:42.405Z,49.51
2018-06-17T10:31:42.437Z,49.58
2018-06-17T10:32:42.449Z,49.41
2018-06-17T10:33:42.590Z,49.94
2018-06-17T10:34:42.625Z,49.78
2018-06-17T10:35:42.450Z,49.94
2018-06-17T10:36:42.440Z,50.15
2018-06-17T10:37:42.468Z,49.59
2018-06-17T10:38:42.484Z,49.47
2018-06-17T10:39:42.457Z,49.31
2018-06-17T10:40:42.415Z,50.04
2018-06-17T10:41:42.463Z,50.14
2018-06-17T10:42:42.475Z,50.21
2018-06-17T10:43:42.477Z,50.43
2018-06-17T10:44:42.436Z,48.56
2018-06-17T10:45:42.492Z,47.92
2018-06-17T10:46:42.437Z,49.25
2018-06-17T10:47:42.505Z,48.93
2018-06-17T10:48:42.479Z,48.91
2018-06-17T10:49:42.530Z,48.67
2018-06-17T10:50:42.451Z,49.17
2018-06-17T10:51:42.463Z,49.02
2018-06-17T10:52:42.436Z,49.41
2018-06-17T10:53:42.473Z,49.75
2018-06-17T10:54:42.470Z,49.63
2018-06-17T10:55:43.299Z,49.29
2018-06-17T10:56:42.505Z,48.79
2018-06-17T10:57:42.480Z,49.39
2018-06-17T10:58:42.489Z,49.76
2018-06-17T10:59:42.587Z,49.02
2018-06-17T11:00:42.433Z,48.78
2018-06-17T11:01:42.455Z,49.01
2018-06-17T11:02:42.477Z,49.4
2018-06-17T11:03:42.469Z,49.29
2018-06-17T11:04:42.522Z,48.41
2018-06-17T11:05:43.054Z,48.7
2018-06-17T11:06:42.495Z,49.06
2018-06-17T11:07:42.652Z,48.91
2018-06-17T11:08:42.488Z,48.58
2018-06-17T11:09:43.590Z,49.51
2018-06-17T11:10:42.666Z,50.3
2018-06-17T11:11:42.484Z,50.05
2018-06-17T11:12:42.542Z,49.24
2018-06-17T11:13:42.583Z,49.29
2018-06-17T11:14:42.595Z,50.67
2018-06-17T11:15:42.527Z,49.64
2018-06-17T11:16:42.466Z,49.51
2018-06-17T11:17:42.506Z,48.95
2018-06-17T11:18:42.469Z,48.77
2018-06-17T11:19:42.719Z,47.56
2018-06-17T11:20:42.488Z,48.86
2018-06-17T11:21:42.579Z,49.06
2018-06-17T11:22:42.496Z,49.35
2018-06-17T11:23:42.547Z,49.89
2018-06-17T11:24:42.666Z,49.08
2018-06-17T11:25:42.781Z,48.53
2018-06-17T11:26:42.714Z,48.26
2018-06-17T11:27:42.644Z,48.73
2018-06-17T11:28:42.617Z,48.98
2018-06-17T11:29:42.646Z,48.82
2018-06-17T11:30:42.606Z,48.7
2018-06-17T11:31:42.762Z,49.02
2018-06-17T11:32:42.779Z,47.82
2018-06-17T11:33:42.674Z,47.71
2018-06-17T11:34:42.688Z,47.47
2018-06-17T11:35:42.758Z,48.24
2018-06-17T11:36:42.720Z,48.42
2018-06-17T11:37:42.655Z,48.31
2018-06-17T11:38:42.660Z,48.53
2018-06-17T11:39:42.632Z,48.98
2018-06-17T11:40:42.767Z,48.04
2018-06-17T11:41:42.627Z,48.35
2018-06-17T11:42:42.508Z,48.08
2018-06-17T11:43:42.509Z,48.83
2018-06-17T11:44:43.295Z,48.55
2018-06-17T11:45:42.658Z,48.21
2018-06-17T11:46:42.664Z,48.21
2018-06-17T11:47:42.539Z,47.91
2018-06-17T11:48:42.612Z,48.7
2018-06-17T11:49:42.717Z,48.95
2018-06-17T11:50:42.549Z,49.08
2018-06-17T11:51:42.722Z,49.1
2018-06-17T11:52:42.544Z,49.37
2018-06-17T11:53:42.543Z,49.72
2018-06-17T11:54:42.695Z,49.94
2018-06-17T11:55:42.978Z,48.72
2018-06-17T11:56:42.732Z,49.13
2018-06-17T11:57:42.673Z,49.2
2018-06-17T11:58:42.689Z,48.89
2018-06-17T11:59:43.006Z,48.67
2018-06-17T12:00:42.707Z,48.99
2018-06-17T12:01:42.685Z,49.99
2018-06-17T12:02:42.528Z,49.39
2018-06-17T12:03:42.538Z,49.07
2018-06-17T12:04:42.532Z,48.6
2018-06-17T12:11:46.791Z,50.3
2018-06-17T12:12:46.765Z,50.05
2018-06-17T12:13:49.969Z,49.2
2018-06-17T12:14:46.991Z,49.46
2018-06-17T12:15:46.819Z,49.95
2018-06-17T12:16:46.738Z,50.39
2018-06-17T12:17:46.753Z,50.01
2018-06-17T12:18:46.881Z,50.08
2018-06-17T12:19:47.919Z,49.62
2018-06-17T12:20:46.729Z,49.46
2018-06-17T12:21:46.750Z,48.8
2018-06-17T12:22:46.897Z,48.64
2018-06-17T12:23:46.748Z,48.71
2018-06-17T12:24:46.926Z,49.68
2018-06-17T12:25:47.042Z,49.64
2018-06-17T12:26:46.893Z,49.58
2018-06-17T12:27:46.896Z,50.02
2018-06-17T12:28:46.908Z,49.45
2018-06-17T12:29:46.716Z,49.61
2018-06-17T12:30:46.710Z,49.94
2018-06-17T12:31:46.883Z,50.29
2018-06-17T12:32:46.876Z,49.59
2018-06-17T12:33:47.081Z,49.59
2018-06-17T12:34:46.898Z,49.5
2018-06-17T12:35:46.947Z,50.01
2018-06-17T12:36:47.078Z,50.33
2018-06-17T12:37:46.859Z,50.48
2018-06-17T12:38:46.808Z,50.45
2018-06-17T12:39:46.726Z,50.16
2018-06-17T12:40:46.903Z,50.35
2018-06-17T12:41:46.742Z,50.45
2018-06-17T12:42:46.763Z,50.04
2018-06-17T12:43:46.956Z,50.18
2018-06-17T12:44:46.933Z,50.21
2018-06-17T12:45:46.729Z,50.3
2018-06-17T12:46:46.795Z,50.6
2018-06-17T12:47:46.804Z,50.79
2018-06-17T12:48:47.028Z,50.66
2018-06-17T12:49:47.035Z,50.84
2018-06-17T12:50:46.724Z,51.46
2018-06-17T12:51:46.693Z,51.26
2018-06-17T12:52:32.728Z,51.04
2018-06-17T12:53:32.937Z,51.3
2018-06-17T12:54:32.842Z,51.89
2018-06-17T12:55:32.695Z,51.47
2018-06-17T12:56:32.861Z,51.67
2018-06-17T12:57:32.676Z,51.28
2018-06-17T12:58:32.699Z,50.75
2018-06-17T12:59:32.750Z,50.79
2018-06-17T13:00:32.682Z,51.12
2018-06-17T13:01:32.674Z,51.07